sensor_id;sensor_type;location;lat;lon;timestamp;P1;durP1;ratioP1;P2;durP2;ratioP2
74532;SDS011;63012;51.096;-115.366;2023-05-16T00:00:41;3.00;;;0.70;;
74532;SDS011;63012;51.096;-115.366;2023-05-16T00:03:08;3.70;;;0.60;;
74532;SDS011;63012;51.096;-115.366;2023-05-16T00:05:37;2.40;;;0.70;;
74532;SDS011;63012;51.096;-115.366;2023-05-16T00:08:04;2.60;;;0.80;;
74532;SDS011;63012;51.096;-115.366;2023-05-16T00:10:31;3.10;;;0.50;;
74532;SDS011;63012;51.096;-115.366;2023-05-16T00:12:58;1.60;;;0.30;;
74532;SDS011;63012;51.096;-115.366;2023-05-16T00:15:27;1.90;;;0.50;;
74532;SDS011;63012;51.096;-115.366;2023-05-16T00:17:58;2.60;;;0.70;;
74532;SDS011;63012;51.096;-115.366;2023-05-16T00:20:26;2.20;;;0.50;;
74532;SDS011;63012;51.096;-115.366;2023-05-16T00:22:54;3.00;;;0.70;;
74532;SDS011;63012;51.096;-115.366;2023-05-16T00:25:22;3.10;;;0.60;;
74532;SDS011;63012;51.096;-115.366;2023-05-16T00:27:49;2.20;;;0.40;;
74532;SDS011;63012;51.096;-115.366;2023-05-16T00:30:15;3.50;;;0.60;;
74532;SDS011;63012;51.096;-115.366;2023-05-16T00:32:42;3.10;;;0.90;;
74532;SDS011;63012;51.096;-115.366;2023-05-16T00:35:09;2.00;;;0.40;;
74532;SDS011;63012;51.096;-115.366;2023-05-16T00:37:37;2.50;;;0.70;;
74532;SDS011;63012;51.096;-115.366;2023-05-16T00:40:05;2.70;;;0.50;;
74532;SDS011;63012;51.096;-115.366;2023-05-16T00:42:33;3.00;;;0.90;;
74532;SDS011;63012;51.096;-115.366;2023-05-16T00:45:00;2.40;;;0.50;;
74532;SDS011;63012;51.096;-115.366;2023-05-16T00:47:27;2.50;;;0.50;;
74532;SDS011;63012;51.096;-115.366;2023-05-16T00:49:54;2.10;;;0.50;;
74532;SDS011;63012;51.096;-115.366;2023-05-16T00:52:22;2.60;;;0.50;;
74532;SDS011;63012;51.096;-115.366;2023-05-16T00:54:50;2.80;;;0.90;;
74532;SDS011;63012;51.096;-115.366;2023-05-16T00:57:17;3.40;;;0.90;;
74532;SDS011;63012;51.096;-115.366;2023-05-16T00:59:45;2.60;;;0.60;;
74532;SDS011;63012;51.096;-115.366;2023-05-16T01:02:13;3.80;;;0.60;;
74532;SDS011;63012;51.096;-115.366;2023-05-16T01:04:41;3.50;;;0.80;;
74532;SDS011;63012;51.096;-115.366;2023-05-16T01:07:09;3.00;;;0.90;;
74532;SDS011;63012;51.096;-115.366;2023-05-16T01:09:37;2.80;;;0.70;;
74532;SDS011;63012;51.096;-115.366;2023-05-16T01:20:58;3.20;;;0.70;;
74532;SDS011;63012;51.096;-115.366;2023-05-16T01:23:51;2.90;;;0.60;;
74532;SDS011;63012;51.096;-115.366;2023-05-16T01:26:26;2.60;;;0.60;;
74532;SDS011;63012;51.096;-115.366;2023-05-16T01:28:55;2.70;;;0.70;;
74532;SDS011;63012;51.096;-115.366;2023-05-16T01:31:22;2.30;;;0.50;;
74532;SDS011;63012;51.096;-115.366;2023-05-16T01:33:50;2.70;;;0.50;;
74532;SDS011;63012;51.096;-115.366;2023-05-16T01:36:38;3.40;;;0.60;;
74532;SDS011;63012;51.096;-115.366;2023-05-16T01:42:15;2.70;;;0.50;;
74532;SDS011;63012;51.096;-115.366;2023-05-16T01:44:59;2.20;;;0.50;;
74532;SDS011;63012;51.096;-115.366;2023-05-16T01:47:35;3.70;;;0.70;;
74532;SDS011;63012;51.096;-115.366;2023-05-16T01:50:13;2.70;;;0.80;;
74532;SDS011;63012;51.096;-115.366;2023-05-16T01:55:41;2.50;;;0.50;;
74532;SDS011;63012;51.096;-115.366;2023-05-16T01:58:12;2.80;;;0.60;;
74532;SDS011;63012;51.096;-115.366;2023-05-16T02:00:41;3.20;;;0.50;;
74532;SDS011;63012;51.096;-115.366;2023-05-16T02:03:08;3.50;;;0.80;;
74532;SDS011;63012;51.096;-115.366;2023-05-16T02:05:35;3.00;;;0.70;;
74532;SDS011;63012;51.096;-115.366;2023-05-16T02:08:03;2.60;;;0.70;;
74532;SDS011;63012;51.096;-115.366;2023-05-16T02:10:29;3.50;;;0.70;;
74532;SDS011;63012;51.096;-115.366;2023-05-16T02:12:57;3.10;;;0.90;;
74532;SDS011;63012;51.096;-115.366;2023-05-16T02:15:24;3.10;;;1.00;;
74532;SDS011;63012;51.096;-115.366;2023-05-16T02:17:50;2.80;;;0.70;;
74532;SDS011;63012;51.096;-115.366;2023-05-16T02:20:17;2.70;;;0.70;;
74532;SDS011;63012;51.096;-115.366;2023-05-16T02:22:45;3.20;;;0.70;;
74532;SDS011;63012;51.096;-115.366;2023-05-16T02:25:13;4.50;;;0.70;;
74532;SDS011;63012;51.096;-115.366;2023-05-16T02:27:42;3.40;;;0.70;;
74532;SDS011;63012;51.096;-115.366;2023-05-16T02:30:12;5.10;;;0.90;;
74532;SDS011;63012;51.096;-115.366;2023-05-16T02:32:39;3.90;;;0.60;;
74532;SDS011;63012;51.096;-115.366;2023-05-16T02:35:10;5.70;;;1.30;;
74532;SDS011;63012;51.096;-115.366;2023-05-16T02:37:37;3.80;;;0.90;;
74532;SDS011;63012;51.096;-115.366;2023-05-16T02:40:04;4.00;;;1.00;;
74532;SDS011;63012;51.096;-115.366;2023-05-16T02:42:33;6.50;;;1.10;;
74532;SDS011;63012;51.096;-115.366;2023-05-16T02:45:00;7.90;;;1.80;;
74532;SDS011;63012;51.096;-115.366;2023-05-16T02:47:27;10.80;;;2.40;;
74532;SDS011;63012;51.096;-115.366;2023-05-16T02:49:53;15.60;;;4.40;;
74532;SDS011;63012;51.096;-115.366;2023-05-16T02:52:21;15.90;;;4.80;;
74532;SDS011;63012;51.096;-115.366;2023-05-16T02:54:48;14.70;;;4.90;;
74532;SDS011;63012;51.096;-115.366;2023-05-16T02:57:15;15.00;;;4.40;;
74532;SDS011;63012;51.096;-115.366;2023-05-16T02:59:41;14.00;;;3.70;;
74532;SDS011;63012;51.096;-115.366;2023-05-16T03:02:08;12.10;;;3.40;;
74532;SDS011;63012;51.096;-115.366;2023-05-16T03:04:36;11.30;;;3.00;;
74532;SDS011;63012;51.096;-115.366;2023-05-16T03:07:03;11.00;;;3.10;;
74532;SDS011;63012;51.096;-115.366;2023-05-16T03:09:30;11.30;;;2.80;;
74532;SDS011;63012;51.096;-115.366;2023-05-16T03:11:57;11.20;;;3.10;;
74532;SDS011;63012;51.096;-115.366;2023-05-16T03:14:24;11.30;;;2.60;;
74532;SDS011;63012;51.096;-115.366;2023-05-16T03:16:51;9.60;;;2.20;;
74532;SDS011;63012;51.096;-115.366;2023-05-16T03:19:18;7.40;;;1.70;;
74532;SDS011;63012;51.096;-115.366;2023-05-16T03:21:44;6.80;;;1.20;;
74532;SDS011;63012;51.096;-115.366;2023-05-16T03:24:11;6.20;;;1.00;;
74532;SDS011;63012;51.096;-115.366;2023-05-16T03:26:38;7.70;;;1.50;;
74532;SDS011;63012;51.096;-115.366;2023-05-16T03:29:05;4.70;;;1.20;;
74532;SDS011;63012;51.096;-115.366;2023-05-16T03:31:32;5.60;;;0.90;;
74532;SDS011;63012;51.096;-115.366;2023-05-16T03:33:59;4.90;;;1.20;;
74532;SDS011;63012;51.096;-115.366;2023-05-16T03:36:26;4.40;;;0.70;;
74532;SDS011;63012;51.096;-115.366;2023-05-16T03:38:54;5.70;;;1.00;;
74532;SDS011;63012;51.096;-115.366;2023-05-16T03:41:21;5.30;;;1.30;;
74532;SDS011;63012;51.096;-115.366;2023-05-16T03:43:48;5.20;;;1.70;;
74532;SDS011;63012;51.096;-115.366;2023-05-16T03:46:15;6.80;;;1.60;;
74532;SDS011;63012;51.096;-115.366;2023-05-16T03:48:42;8.60;;;2.10;;
74532;SDS011;63012;51.096;-115.366;2023-05-16T03:51:09;6.80;;;2.30;;
74532;SDS011;63012;51.096;-115.366;2023-05-16T03:53:36;6.50;;;2.20;;
74532;SDS011;63012;51.096;-115.366;2023-05-16T03:56:03;6.00;;;1.40;;
74532;SDS011;63012;51.096;-115.366;2023-05-16T03:58:30;6.30;;;1.50;;
74532;SDS011;63012;51.096;-115.366;2023-05-16T04:00:57;6.10;;;1.30;;
74532;SDS011;63012;51.096;-115.366;2023-05-16T04:03:24;5.80;;;1.40;;
74532;SDS011;63012;51.096;-115.366;2023-05-16T04:05:53;4.60;;;1.20;;
74532;SDS011;63012;51.096;-115.366;2023-05-16T04:08:21;4.90;;;1.10;;
74532;SDS011;63012;51.096;-115.366;2023-05-16T04:10:48;4.70;;;1.30;;
74532;SDS011;63012;51.096;-115.366;2023-05-16T04:13:15;5.70;;;1.70;;
74532;SDS011;63012;51.096;-115.366;2023-05-16T04:15:42;5.60;;;1.20;;
74532;SDS011;63012;51.096;-115.366;2023-05-16T04:18:09;4.60;;;1.00;;
74532;SDS011;63012;51.096;-115.366;2023-05-16T04:20:36;5.00;;;1.20;;
74532;SDS011;63012;51.096;-115.366;2023-05-16T04:23:03;5.60;;;1.20;;
74532;SDS011;63012;51.096;-115.366;2023-05-16T04:25:30;5.40;;;1.00;;
74532;SDS011;63012;51.096;-115.366;2023-05-16T04:27:57;5.10;;;1.10;;
74532;SDS011;63012;51.096;-115.366;2023-05-16T04:30:24;4.30;;;0.70;;
74532;SDS011;63012;51.096;-115.366;2023-05-16T04:32:52;3.70;;;1.10;;
74532;SDS011;63012;51.096;-115.366;2023-05-16T04:35:19;5.40;;;0.90;;
74532;SDS011;63012;51.096;-115.366;2023-05-16T04:37:47;3.90;;;1.10;;
74532;SDS011;63012;51.096;-115.366;2023-05-16T04:40:14;4.30;;;0.70;;
74532;SDS011;63012;51.096;-115.366;2023-05-16T04:42:41;6.00;;;1.10;;
74532;SDS011;63012;51.096;-115.366;2023-05-16T04:45:09;4.50;;;0.80;;
74532;SDS011;63012;51.096;-115.366;2023-05-16T04:47:37;5.70;;;1.10;;
74532;SDS011;63012;51.096;-115.366;2023-05-16T04:50:04;4.80;;;0.70;;
74532;SDS011;63012;51.096;-115.366;2023-05-16T04:52:32;4.10;;;0.80;;
74532;SDS011;63012;51.096;-115.366;2023-05-16T04:54:59;4.20;;;0.80;;
74532;SDS011;63012;51.096;-115.366;2023-05-16T04:57:26;5.10;;;1.10;;
74532;SDS011;63012;51.096;-115.366;2023-05-16T04:59:53;4.30;;;1.00;;
74532;SDS011;63012;51.096;-115.366;2023-05-16T05:02:20;3.60;;;0.80;;
74532;SDS011;63012;51.096;-115.366;2023-05-16T05:04:47;5.20;;;1.40;;
74532;SDS011;63012;51.096;-115.366;2023-05-16T05:07:14;4.70;;;1.10;;
74532;SDS011;63012;51.096;-115.366;2023-05-16T05:09:41;5.90;;;1.20;;
74532;SDS011;63012;51.096;-115.366;2023-05-16T05:12:08;5.00;;;1.40;;
74532;SDS011;63012;51.096;-115.366;2023-05-16T05:14:35;7.40;;;1.00;;
74532;SDS011;63012;51.096;-115.366;2023-05-16T05:17:02;4.30;;;1.30;;
74532;SDS011;63012;51.096;-115.366;2023-05-16T05:19:29;4.50;;;1.20;;
74532;SDS011;63012;51.096;-115.366;2023-05-16T05:21:56;4.40;;;1.20;;
74532;SDS011;63012;51.096;-115.366;2023-05-16T05:24:24;3.30;;;0.60;;
74532;SDS011;63012;51.096;-115.366;2023-05-16T05:26:51;3.70;;;0.80;;
74532;SDS011;63012;51.096;-115.366;2023-05-16T05:29:18;4.90;;;0.90;;
74532;SDS011;63012;51.096;-115.366;2023-05-16T05:31:45;4.30;;;1.20;;
74532;SDS011;63012;51.096;-115.366;2023-05-16T05:34:12;5.30;;;0.80;;
74532;SDS011;63012;51.096;-115.366;2023-05-16T05:36:39;4.60;;;1.30;;
74532;SDS011;63012;51.096;-115.366;2023-05-16T05:39:06;4.90;;;0.80;;
74532;SDS011;63012;51.096;-115.366;2023-05-16T05:41:34;5.70;;;1.00;;
74532;SDS011;63012;51.096;-115.366;2023-05-16T05:44:00;4.80;;;1.10;;
74532;SDS011;63012;51.096;-115.366;2023-05-16T05:46:28;4.80;;;1.20;;
74532;SDS011;63012;51.096;-115.366;2023-05-16T05:48:55;4.60;;;1.10;;
74532;SDS011;63012;51.096;-115.366;2023-05-16T05:51:22;5.20;;;1.20;;
74532;SDS011;63012;51.096;-115.366;2023-05-16T05:53:49;4.90;;;1.10;;
74532;SDS011;63012;51.096;-115.366;2023-05-16T05:56:17;5.00;;;1.30;;
74532;SDS011;63012;51.096;-115.366;2023-05-16T05:58:44;5.20;;;1.40;;
74532;SDS011;63012;51.096;-115.366;2023-05-16T06:01:11;6.00;;;1.60;;
74532;SDS011;63012;51.096;-115.366;2023-05-16T06:03:38;6.00;;;1.70;;
74532;SDS011;63012;51.096;-115.366;2023-05-16T06:06:05;6.60;;;2.00;;
74532;SDS011;63012;51.096;-115.366;2023-05-16T06:08:33;5.10;;;1.30;;
74532;SDS011;63012;51.096;-115.366;2023-05-16T06:11:00;6.20;;;1.80;;
74532;SDS011;63012;51.096;-115.366;2023-05-16T06:13:27;5.20;;;1.50;;
74532;SDS011;63012;51.096;-115.366;2023-05-16T06:15:54;5.50;;;1.30;;
74532;SDS011;63012;51.096;-115.366;2023-05-16T06:18:21;5.00;;;1.90;;
74532;SDS011;63012;51.096;-115.366;2023-05-16T06:20:48;5.70;;;2.00;;
74532;SDS011;63012;51.096;-115.366;2023-05-16T06:23:15;6.90;;;1.80;;
74532;SDS011;63012;51.096;-115.366;2023-05-16T06:25:42;5.20;;;1.60;;
74532;SDS011;63012;51.096;-115.366;2023-05-16T06:28:09;5.80;;;2.00;;
74532;SDS011;63012;51.096;-115.366;2023-05-16T06:30:36;5.70;;;1.70;;
74532;SDS011;63012;51.096;-115.366;2023-05-16T06:33:03;6.60;;;2.00;;
74532;SDS011;63012;51.096;-115.366;2023-05-16T06:35:30;6.80;;;2.10;;
74532;SDS011;63012;51.096;-115.366;2023-05-16T06:37:57;6.70;;;1.90;;
74532;SDS011;63012;51.096;-115.366;2023-05-16T06:40:25;7.20;;;2.20;;
74532;SDS011;63012;51.096;-115.366;2023-05-16T06:42:52;6.10;;;2.20;;
74532;SDS011;63012;51.096;-115.366;2023-05-16T06:45:19;6.30;;;1.90;;
74532;SDS011;63012;51.096;-115.366;2023-05-16T06:47:45;6.30;;;1.60;;
74532;SDS011;63012;51.096;-115.366;2023-05-16T06:50:13;5.80;;;1.60;;
74532;SDS011;63012;51.096;-115.366;2023-05-16T06:52:40;5.60;;;1.10;;
74532;SDS011;63012;51.096;-115.366;2023-05-16T06:55:08;5.90;;;1.80;;
74532;SDS011;63012;51.096;-115.366;2023-05-16T06:57:35;5.70;;;1.70;;
74532;SDS011;63012;51.096;-115.366;2023-05-16T07:00:02;4.90;;;1.40;;
74532;SDS011;63012;51.096;-115.366;2023-05-16T07:02:30;5.10;;;1.30;;
74532;SDS011;63012;51.096;-115.366;2023-05-16T07:04:57;5.70;;;0.90;;
74532;SDS011;63012;51.096;-115.366;2023-05-16T07:07:24;4.70;;;1.20;;
74532;SDS011;63012;51.096;-115.366;2023-05-16T07:09:51;5.30;;;1.10;;
74532;SDS011;63012;51.096;-115.366;2023-05-16T07:12:19;5.10;;;1.40;;
74532;SDS011;63012;51.096;-115.366;2023-05-16T07:14:46;5.10;;;1.40;;
74532;SDS011;63012;51.096;-115.366;2023-05-16T07:17:13;6.30;;;1.30;;
74532;SDS011;63012;51.096;-115.366;2023-05-16T07:19:40;6.30;;;1.30;;
74532;SDS011;63012;51.096;-115.366;2023-05-16T07:22:07;4.70;;;1.40;;
74532;SDS011;63012;51.096;-115.366;2023-05-16T07:24:34;6.10;;;1.70;;
74532;SDS011;63012;51.096;-115.366;2023-05-16T07:27:01;4.10;;;1.10;;
74532;SDS011;63012;51.096;-115.366;2023-05-16T07:29:28;4.50;;;1.00;;
74532;SDS011;63012;51.096;-115.366;2023-05-16T07:31:55;4.80;;;1.10;;
74532;SDS011;63012;51.096;-115.366;2023-05-16T07:34:22;5.80;;;1.40;;
74532;SDS011;63012;51.096;-115.366;2023-05-16T07:36:49;4.70;;;1.10;;
74532;SDS011;63012;51.096;-115.366;2023-05-16T07:39:16;4.70;;;1.50;;
74532;SDS011;63012;51.096;-115.366;2023-05-16T07:41:43;4.70;;;1.10;;
74532;SDS011;63012;51.096;-115.366;2023-05-16T07:44:10;5.50;;;1.50;;
74532;SDS011;63012;51.096;-115.366;2023-05-16T07:46:37;4.90;;;1.30;;
74532;SDS011;63012;51.096;-115.366;2023-05-16T07:49:05;4.10;;;1.10;;
74532;SDS011;63012;51.096;-115.366;2023-05-16T07:51:31;5.90;;;1.10;;
74532;SDS011;63012;51.096;-115.366;2023-05-16T07:53:58;4.60;;;1.20;;
74532;SDS011;63012;51.096;-115.366;2023-05-16T07:56:26;3.90;;;1.10;;
74532;SDS011;63012;51.096;-115.366;2023-05-16T07:58:53;5.40;;;1.60;;
74532;SDS011;63012;51.096;-115.366;2023-05-16T08:01:20;4.00;;;0.90;;
74532;SDS011;63012;51.096;-115.366;2023-05-16T08:03:47;5.20;;;1.50;;
74532;SDS011;63012;51.096;-115.366;2023-05-16T08:06:14;4.10;;;1.00;;
74532;SDS011;63012;51.096;-115.366;2023-05-16T08:08:41;5.00;;;1.10;;
74532;SDS011;63012;51.096;-115.366;2023-05-16T08:11:08;5.40;;;1.20;;
74532;SDS011;63012;51.096;-115.366;2023-05-16T08:13:36;4.60;;;1.50;;
74532;SDS011;63012;51.096;-115.366;2023-05-16T08:16:03;5.10;;;1.40;;
74532;SDS011;63012;51.096;-115.366;2023-05-16T08:18:30;5.40;;;1.40;;
74532;SDS011;63012;51.096;-115.366;2023-05-16T08:20:57;4.90;;;1.20;;
74532;SDS011;63012;51.096;-115.366;2023-05-16T08:23:24;4.60;;;1.60;;
74532;SDS011;63012;51.096;-115.366;2023-05-16T08:25:51;4.10;;;1.00;;
74532;SDS011;63012;51.096;-115.366;2023-05-16T08:28:19;4.90;;;1.50;;
74532;SDS011;63012;51.096;-115.366;2023-05-16T08:30:46;5.00;;;1.40;;
74532;SDS011;63012;51.096;-115.366;2023-05-16T08:33:13;4.50;;;1.20;;
74532;SDS011;63012;51.096;-115.366;2023-05-16T08:35:43;4.70;;;2.00;;
74532;SDS011;63012;51.096;-115.366;2023-05-16T08:38:11;5.20;;;1.60;;
74532;SDS011;63012;51.096;-115.366;2023-05-16T08:40:39;4.70;;;1.40;;
74532;SDS011;63012;51.096;-115.366;2023-05-16T08:43:07;3.70;;;1.10;;
74532;SDS011;63012;51.096;-115.366;2023-05-16T08:45:34;5.10;;;1.40;;
74532;SDS011;63012;51.096;-115.366;2023-05-16T08:48:02;6.00;;;1.40;;
74532;SDS011;63012;51.096;-115.366;2023-05-16T08:50:31;4.60;;;1.20;;
74532;SDS011;63012;51.096;-115.366;2023-05-16T08:53:01;5.20;;;1.40;;
74532;SDS011;63012;51.096;-115.366;2023-05-16T08:55:33;4.70;;;1.50;;
74532;SDS011;63012;51.096;-115.366;2023-05-16T08:58:02;5.60;;;1.80;;
74532;SDS011;63012;51.096;-115.366;2023-05-16T09:00:30;5.40;;;1.60;;
74532;SDS011;63012;51.096;-115.366;2023-05-16T09:02:57;3.80;;;1.20;;
74532;SDS011;63012;51.096;-115.366;2023-05-16T09:05:28;5.10;;;1.30;;
74532;SDS011;63012;51.096;-115.366;2023-05-16T09:07:56;4.20;;;1.30;;
74532;SDS011;63012;51.096;-115.366;2023-05-16T09:10:23;4.50;;;1.20;;
74532;SDS011;63012;51.096;-115.366;2023-05-16T09:12:50;5.00;;;1.50;;
74532;SDS011;63012;51.096;-115.366;2023-05-16T09:15:18;5.30;;;1.20;;
74532;SDS011;63012;51.096;-115.366;2023-05-16T09:17:48;4.50;;;1.70;;
74532;SDS011;63012;51.096;-115.366;2023-05-16T09:20:17;4.30;;;1.30;;
74532;SDS011;63012;51.096;-115.366;2023-05-16T09:22:53;5.70;;;1.50;;
74532;SDS011;63012;51.096;-115.366;2023-05-16T09:25:24;4.90;;;1.30;;
74532;SDS011;63012;51.096;-115.366;2023-05-16T09:27:55;6.90;;;1.20;;
74532;SDS011;63012;51.096;-115.366;2023-05-16T09:30:28;4.50;;;1.30;;
74532;SDS011;63012;51.096;-115.366;2023-05-16T09:32:56;4.70;;;1.00;;
74532;SDS011;63012;51.096;-115.366;2023-05-16T09:35:24;5.30;;;1.70;;
74532;SDS011;63012;51.096;-115.366;2023-05-16T09:37:51;4.90;;;1.10;;
74532;SDS011;63012;51.096;-115.366;2023-05-16T09:40:22;5.80;;;1.00;;
74532;SDS011;63012;51.096;-115.366;2023-05-16T09:43:07;6.10;;;1.50;;
74532;SDS011;63012;51.096;-115.366;2023-05-16T09:45:35;5.10;;;1.50;;
74532;SDS011;63012;51.096;-115.366;2023-05-16T09:48:06;5.00;;;1.40;;
74532;SDS011;63012;51.096;-115.366;2023-05-16T09:50:38;5.00;;;1.30;;
74532;SDS011;63012;51.096;-115.366;2023-05-16T09:53:06;4.40;;;1.40;;
74532;SDS011;63012;51.096;-115.366;2023-05-16T09:55:33;4.90;;;1.30;;
74532;SDS011;63012;51.096;-115.366;2023-05-16T09:58:00;5.60;;;1.60;;
74532;SDS011;63012;51.096;-115.366;2023-05-16T10:00:31;5.00;;;1.30;;
74532;SDS011;63012;51.096;-115.366;2023-05-16T10:03:00;5.40;;;1.30;;
74532;SDS011;63012;51.096;-115.366;2023-05-16T10:05:29;5.80;;;1.50;;
74532;SDS011;63012;51.096;-115.366;2023-05-16T10:07:57;5.80;;;1.80;;
74532;SDS011;63012;51.096;-115.366;2023-05-16T10:10:24;5.60;;;1.40;;
74532;SDS011;63012;51.096;-115.366;2023-05-16T10:12:55;4.90;;;1.80;;
74532;SDS011;63012;51.096;-115.366;2023-05-16T10:15:26;5.80;;;1.60;;
74532;SDS011;63012;51.096;-115.366;2023-05-16T10:17:55;4.80;;;1.70;;
74532;SDS011;63012;51.096;-115.366;2023-05-16T10:20:26;6.70;;;1.70;;
74532;SDS011;63012;51.096;-115.366;2023-05-16T10:22:55;5.20;;;1.80;;
74532;SDS011;63012;51.096;-115.366;2023-05-16T10:25:31;5.50;;;1.60;;
74532;SDS011;63012;51.096;-115.366;2023-05-16T10:28:04;4.30;;;1.40;;
74532;SDS011;63012;51.096;-115.366;2023-05-16T10:30:36;4.70;;;1.30;;
74532;SDS011;63012;51.096;-115.366;2023-05-16T10:33:15;7.00;;;1.70;;
74532;SDS011;63012;51.096;-115.366;2023-05-16T10:35:44;4.90;;;1.40;;
74532;SDS011;63012;51.096;-115.366;2023-05-16T10:38:14;5.90;;;1.90;;
74532;SDS011;63012;51.096;-115.366;2023-05-16T10:40:43;5.00;;;1.50;;
74532;SDS011;63012;51.096;-115.366;2023-05-16T10:43:30;5.20;;;1.60;;
74532;SDS011;63012;51.096;-115.366;2023-05-16T10:46:07;4.30;;;1.40;;
74532;SDS011;63012;51.096;-115.366;2023-05-16T10:48:36;4.40;;;1.50;;
74532;SDS011;63012;51.096;-115.366;2023-05-16T10:51:33;5.50;;;1.90;;
74532;SDS011;63012;51.096;-115.366;2023-05-16T10:54:08;4.80;;;1.70;;
74532;SDS011;63012;51.096;-115.366;2023-05-16T10:56:37;5.30;;;1.40;;
74532;SDS011;63012;51.096;-115.366;2023-05-16T10:59:24;4.80;;;1.80;;
74532;SDS011;63012;51.096;-115.366;2023-05-16T11:01:55;5.50;;;1.60;;
74532;SDS011;63012;51.096;-115.366;2023-05-16T11:04:21;5.80;;;1.80;;
74532;SDS011;63012;51.096;-115.366;2023-05-16T11:06:51;6.20;;;1.70;;
74532;SDS011;63012;51.096;-115.366;2023-05-16T11:09:20;4.70;;;1.50;;
74532;SDS011;63012;51.096;-115.366;2023-05-16T11:17:15;5.50;;;1.60;;
74532;SDS011;63012;51.096;-115.366;2023-05-16T11:19:51;4.60;;;1.60;;
74532;SDS011;63012;51.096;-115.366;2023-05-16T11:22:38;5.40;;;1.40;;
74532;SDS011;63012;51.096;-115.366;2023-05-16T11:25:09;5.70;;;1.40;;
74532;SDS011;63012;51.096;-115.366;2023-05-16T11:27:46;4.70;;;1.50;;
74532;SDS011;63012;51.096;-115.366;2023-05-16T11:30:15;6.70;;;1.40;;
74532;SDS011;63012;51.096;-115.366;2023-05-16T11:32:45;5.30;;;1.70;;
74532;SDS011;63012;51.096;-115.366;2023-05-16T11:35:17;4.40;;;1.30;;
74532;SDS011;63012;51.096;-115.366;2023-05-16T11:37:46;4.90;;;1.30;;
74532;SDS011;63012;51.096;-115.366;2023-05-16T11:40:13;4.60;;;1.50;;
74532;SDS011;63012;51.096;-115.366;2023-05-16T11:42:46;6.10;;;2.00;;
74532;SDS011;63012;51.096;-115.366;2023-05-16T11:45:19;5.10;;;1.60;;
74532;SDS011;63012;51.096;-115.366;2023-05-16T11:47:50;4.70;;;1.40;;
74532;SDS011;63012;51.096;-115.366;2023-05-16T11:50:21;4.70;;;1.60;;
74532;SDS011;63012;51.096;-115.366;2023-05-16T11:52:50;4.70;;;1.60;;
74532;SDS011;63012;51.096;-115.366;2023-05-16T11:55:24;4.80;;;1.50;;
74532;SDS011;63012;51.096;-115.366;2023-05-16T11:57:58;6.30;;;1.70;;
74532;SDS011;63012;51.096;-115.366;2023-05-16T12:00:26;5.30;;;1.40;;
74532;SDS011;63012;51.096;-115.366;2023-05-16T12:02:54;5.30;;;1.80;;
74532;SDS011;63012;51.096;-115.366;2023-05-16T12:05:27;5.40;;;1.90;;
74532;SDS011;63012;51.096;-115.366;2023-05-16T12:07:56;5.80;;;1.90;;
74532;SDS011;63012;51.096;-115.366;2023-05-16T12:10:24;5.20;;;1.90;;
74532;SDS011;63012;51.096;-115.366;2023-05-16T12:12:51;5.00;;;1.20;;
74532;SDS011;63012;51.096;-115.366;2023-05-16T12:15:19;5.00;;;1.50;;
74532;SDS011;63012;51.096;-115.366;2023-05-16T12:17:47;6.20;;;1.70;;
74532;SDS011;63012;51.096;-115.366;2023-05-16T12:20:14;5.40;;;1.70;;
74532;SDS011;63012;51.096;-115.366;2023-05-16T12:22:45;5.40;;;2.10;;
74532;SDS011;63012;51.096;-115.366;2023-05-16T12:25:31;5.00;;;1.80;;
74532;SDS011;63012;51.096;-115.366;2023-05-16T12:28:03;5.30;;;1.60;;
74532;SDS011;63012;51.096;-115.366;2023-05-16T12:30:33;5.90;;;1.50;;
74532;SDS011;63012;51.096;-115.366;2023-05-16T12:33:01;5.90;;;1.70;;
74532;SDS011;63012;51.096;-115.366;2023-05-16T12:35:36;5.60;;;1.90;;
74532;SDS011;63012;51.096;-115.366;2023-05-16T12:38:06;6.50;;;1.60;;
74532;SDS011;63012;51.096;-115.366;2023-05-16T12:40:39;6.60;;;1.70;;
74532;SDS011;63012;51.096;-115.366;2023-05-16T12:43:20;6.30;;;2.10;;
74532;SDS011;63012;51.096;-115.366;2023-05-16T12:45:57;6.40;;;1.90;;
74532;SDS011;63012;51.096;-115.366;2023-05-16T12:48:32;6.20;;;2.00;;
74532;SDS011;63012;51.096;-115.366;2023-05-16T12:51:17;5.80;;;1.60;;
74532;SDS011;63012;51.096;-115.366;2023-05-16T12:53:48;4.90;;;1.70;;
74532;SDS011;63012;51.096;-115.366;2023-05-16T12:56:16;5.00;;;1.40;;
74532;SDS011;63012;51.096;-115.366;2023-05-16T12:58:42;5.40;;;1.70;;
74532;SDS011;63012;51.096;-115.366;2023-05-16T13:01:09;6.50;;;1.60;;
74532;SDS011;63012;51.096;-115.366;2023-05-16T13:03:37;4.60;;;1.30;;
74532;SDS011;63012;51.096;-115.366;2023-05-16T13:06:04;7.00;;;1.50;;
74532;SDS011;63012;51.096;-115.366;2023-05-16T13:08:31;5.60;;;1.50;;
74532;SDS011;63012;51.096;-115.366;2023-05-16T13:10:58;6.10;;;1.70;;
74532;SDS011;63012;51.096;-115.366;2023-05-16T13:13:25;5.90;;;1.90;;
74532;SDS011;63012;51.096;-115.366;2023-05-16T13:15:52;5.50;;;1.50;;
74532;SDS011;63012;51.096;-115.366;2023-05-16T13:18:20;4.90;;;1.40;;
74532;SDS011;63012;51.096;-115.366;2023-05-16T13:20:47;4.80;;;1.40;;
74532;SDS011;63012;51.096;-115.366;2023-05-16T13:23:14;5.30;;;1.50;;
74532;SDS011;63012;51.096;-115.366;2023-05-16T13:25:41;5.20;;;1.80;;
74532;SDS011;63012;51.096;-115.366;2023-05-16T13:28:08;5.30;;;1.40;;
74532;SDS011;63012;51.096;-115.366;2023-05-16T13:30:35;5.20;;;1.60;;
74532;SDS011;63012;51.096;-115.366;2023-05-16T13:33:02;5.50;;;2.00;;
74532;SDS011;63012;51.096;-115.366;2023-05-16T13:35:29;7.80;;;2.20;;
74532;SDS011;63012;51.096;-115.366;2023-05-16T13:37:56;6.00;;;1.50;;
74532;SDS011;63012;51.096;-115.366;2023-05-16T13:40:23;5.40;;;1.70;;
74532;SDS011;63012;51.096;-115.366;2023-05-16T13:42:50;5.80;;;1.50;;
74532;SDS011;63012;51.096;-115.366;2023-05-16T13:45:18;6.10;;;1.70;;
74532;SDS011;63012;51.096;-115.366;2023-05-16T13:47:44;5.40;;;1.60;;
74532;SDS011;63012;51.096;-115.366;2023-05-16T13:50:11;6.60;;;1.60;;
74532;SDS011;63012;51.096;-115.366;2023-05-16T13:52:38;5.40;;;1.70;;
74532;SDS011;63012;51.096;-115.366;2023-05-16T13:55:06;5.70;;;1.70;;
74532;SDS011;63012;51.096;-115.366;2023-05-16T13:57:33;5.30;;;1.30;;
74532;SDS011;63012;51.096;-115.366;2023-05-16T14:00:01;5.30;;;1.50;;
74532;SDS011;63012;51.096;-115.366;2023-05-16T14:02:41;7.00;;;2.10;;
74532;SDS011;63012;51.096;-115.366;2023-05-16T14:05:08;5.00;;;1.80;;
74532;SDS011;63012;51.096;-115.366;2023-05-16T14:07:35;6.50;;;1.40;;
74532;SDS011;63012;51.096;-115.366;2023-05-16T14:10:03;5.10;;;1.60;;
74532;SDS011;63012;51.096;-115.366;2023-05-16T14:12:31;4.70;;;1.50;;
74532;SDS011;63012;51.096;-115.366;2023-05-16T14:14:58;6.50;;;1.50;;
74532;SDS011;63012;51.096;-115.366;2023-05-16T14:17:26;6.50;;;1.50;;
74532;SDS011;63012;51.096;-115.366;2023-05-16T14:19:53;7.80;;;1.50;;
74532;SDS011;63012;51.096;-115.366;2023-05-16T14:22:20;5.40;;;1.30;;
74532;SDS011;63012;51.096;-115.366;2023-05-16T14:24:47;6.60;;;1.90;;
74532;SDS011;63012;51.096;-115.366;2023-05-16T14:27:15;6.60;;;1.80;;
74532;SDS011;63012;51.096;-115.366;2023-05-16T14:29:42;7.40;;;1.60;;
74532;SDS011;63012;51.096;-115.366;2023-05-16T14:32:09;6.60;;;1.40;;
74532;SDS011;63012;51.096;-115.366;2023-05-16T14:34:37;6.30;;;1.80;;
74532;SDS011;63012;51.096;-115.366;2023-05-16T14:37:04;5.00;;;1.20;;